« Back
NWS Peachtree City, Ga » Text Product » MCN Terminal Aerodrome Forecast


Printer-friendly Version
Current Version              Previous Versions:   1  2  3  4  5  6  7  8  9  

Terminal Aerodrome Forecast

558
FTUS42 KFFC 191722
TAFMCN
TAF
KMCN 191722Z 1918/2018 VRB03KT P6SM OVC200
     FM200300 01003KT P6SM VCSH OVC070
     FM200500 00000KT 6SM -RA BR OVC050
     FM201100 00000KT 5SM -RA BR OVC025
     FM201700 06003KT P6SM VCSH OVC015=



USA.gov is the U.S. government's official web portal to all federal, state and local government web resources and services.